createdAt,value
2022-12-29T00:00:12.058Z,1.13
2022-12-29T00:02:42.029Z,0.77
2022-12-29T00:05:09.819Z,0.90
2022-12-29T00:07:36.612Z,1.00
2022-12-29T00:10:04.078Z,0.70
2022-12-29T00:12:50.997Z,1.20
2022-12-29T00:15:36.609Z,0.70
2022-12-29T00:18:03.580Z,0.80
2022-12-29T00:20:48.886Z,0.80
2022-12-29T00:23:34.737Z,0.90
2022-12-29T00:26:23.203Z,0.80
2022-12-29T00:29:10.239Z,0.90
2022-12-29T00:31:55.631Z,0.90
2022-12-29T00:34:41.368Z,0.90
2022-12-29T00:37:08.403Z,0.57
2022-12-29T00:39:53.976Z,0.70
2022-12-29T00:42:39.284Z,0.70
2022-12-29T00:45:06.555Z,0.90
2022-12-29T00:47:34.058Z,0.40
2022-12-29T00:50:01.101Z,0.60
2022-12-29T00:52:27.925Z,0.80
2022-12-29T00:54:55.016Z,0.50
2022-12-29T00:57:21.831Z,0.60
2022-12-29T00:59:48.729Z,0.77
2022-12-29T01:02:16.337Z,0.77
2022-12-29T01:04:43.956Z,0.80
2022-12-29T01:07:10.878Z,0.90
2022-12-29T01:09:56.677Z,1.00
2022-12-29T01:12:41.621Z,0.77
2022-12-29T01:15:14.324Z,0.87
2022-12-29T01:17:42.057Z,0.80
2022-12-29T01:20:09.334Z,1.00
2022-12-29T01:22:36.248Z,0.80
2022-12-29T01:25:03.773Z,0.90
2022-12-29T01:27:30.800Z,0.60
2022-12-29T01:29:58.389Z,0.60
2022-12-29T01:32:25.301Z,0.87
2022-12-29T01:34:52.013Z,1.10
2022-12-29T01:37:18.841Z,0.80
2022-12-29T01:39:45.575Z,1.10
2022-12-29T01:42:19.817Z,1.00
2022-12-29T01:44:52.642Z,1.23
2022-12-29T01:47:40.926Z,1.10
2022-12-29T01:50:23.928Z,1.00
2022-12-29T01:53:15.339Z,1.10
2022-12-29T01:55:45.954Z,1.03
2022-12-29T01:58:13.879Z,1.87
2022-12-29T02:00:41.065Z,1.27
2022-12-29T02:03:09.591Z,0.97
2022-12-29T02:05:45.443Z,1.10
2022-12-29T02:08:13.996Z,1.03
2022-12-29T02:10:41.641Z,0.80
2022-12-29T02:13:08.690Z,0.80
2022-12-29T02:16:04.617Z,0.50
2022-12-29T02:18:53.084Z,0.90
2022-12-29T02:21:31.251Z,0.73
2022-12-29T02:24:00.904Z,0.60
2022-12-29T02:26:27.834Z,0.50
2022-12-29T02:28:57.628Z,0.60
2022-12-29T02:31:47.689Z,0.60
2022-12-29T02:34:27.025Z,1.00
2022-12-29T02:37:02.312Z,0.50
2022-12-29T02:39:44.456Z,0.40
2022-12-29T02:42:20.410Z,0.50
2022-12-29T02:44:57.108Z,0.63
2022-12-29T02:47:39.440Z,0.80
2022-12-29T02:50:09.246Z,0.50
2022-12-29T02:52:50.898Z,0.60
2022-12-29T02:55:17.832Z,0.40
2022-12-29T02:57:44.738Z,0.60
2022-12-29T03:00:15.565Z,0.53
2022-12-29T03:02:57.881Z,0.77
2022-12-29T03:05:47.465Z,0.53
2022-12-29T03:08:31.199Z,0.70
2022-12-29T03:11:04.014Z,0.60
2022-12-29T03:14:03.692Z,0.40
2022-12-29T03:16:46.267Z,0.40
2022-12-29T03:19:41.479Z,0.37
2022-12-29T03:22:33.436Z,0.50
2022-12-29T03:25:19.136Z,0.50
2022-12-29T03:27:50.174Z,0.40
2022-12-29T03:30:19.349Z,0.40
2022-12-29T03:32:53.540Z,0.40
2022-12-29T03:35:23.564Z,0.20
2022-12-29T03:38:21.619Z,0.93
2022-12-29T03:40:52.207Z,0.30
2022-12-29T03:43:19.997Z,0.50
2022-12-29T03:45:47.803Z,0.50
2022-12-29T03:48:14.584Z,0.40
2022-12-29T03:50:42.176Z,0.40
2022-12-29T03:53:09.798Z,0.73
2022-12-29T03:55:39.043Z,0.67
2022-12-29T03:58:06.168Z,0.70
2022-12-29T04:01:02.056Z,0.53
2022-12-29T04:03:32.322Z,0.70
2022-12-29T04:05:59.407Z,0.73
2022-12-29T04:08:27.532Z,0.80
2022-12-29T04:10:54.482Z,0.80
2022-12-29T04:13:23.082Z,1.07
2022-12-29T04:15:52.693Z,0.67
2022-12-29T04:18:19.533Z,1.57
2022-12-29T04:21:01.712Z,0.83
2022-12-29T04:23:34.237Z,1.00
2022-12-29T04:26:01.515Z,1.10
2022-12-29T04:28:30.748Z,0.77
2022-12-29T04:30:57.857Z,0.70
2022-12-29T04:33:29.342Z,0.93
2022-12-29T04:35:56.450Z,1.03
2022-12-29T04:38:24.974Z,0.63
2022-12-29T04:40:52.648Z,0.83
2022-12-29T04:43:25.361Z,1.00
2022-12-29T04:46:15.283Z,1.00
2022-12-29T04:49:09.731Z,0.67
2022-12-29T04:51:55.397Z,0.70
2022-12-29T04:54:22.600Z,0.70
2022-12-29T04:56:56.360Z,0.90
2022-12-29T04:59:24.673Z,0.70
2022-12-29T05:01:55.038Z,1.10
2022-12-29T05:04:22.624Z,0.63
2022-12-29T05:06:49.767Z,0.97
2022-12-29T05:09:17.695Z,0.90
2022-12-29T05:11:45.770Z,0.90
2022-12-29T05:14:12.798Z,1.30
2022-12-29T05:16:39.934Z,0.80
2022-12-29T05:19:07.012Z,1.00
2022-12-29T05:21:34.660Z,1.23
2022-12-29T05:24:02.057Z,1.07
2022-12-29T05:26:32.119Z,1.07
2022-12-29T05:29:19.465Z,0.80
2022-12-29T05:31:46.467Z,1.47
2022-12-29T05:34:13.399Z,1.13
2022-12-29T05:36:41.360Z,0.93
2022-12-29T05:39:09.992Z,1.20
2022-12-29T05:41:37.628Z,1.17
2022-12-29T05:44:24.882Z,1.30
2022-12-29T05:47:12.037Z,1.20
2022-12-29T05:50:11.004Z,1.40
2022-12-29T05:52:57.983Z,0.57
2022-12-29T05:55:24.819Z,0.97
2022-12-29T05:57:54.379Z,1.17
2022-12-29T06:00:21.480Z,1.10
2022-12-29T06:02:48.696Z,1.97
2022-12-29T06:05:17.534Z,1.50
2022-12-29T06:07:45.888Z,1.37
2022-12-29T06:10:15.511Z,1.13
2022-12-29T06:12:46.493Z,1.30
2022-12-29T06:15:14.872Z,0.87
2022-12-29T06:17:42.813Z,1.10
2022-12-29T06:20:11.197Z,1.07
2022-12-29T06:22:38.267Z,1.50
2022-12-29T06:25:06.514Z,1.23
2022-12-29T06:27:35.091Z,1.20
2022-12-29T06:30:02.373Z,1.20
2022-12-29T06:32:34.490Z,1.30
2022-12-29T06:35:07.069Z,1.23
2022-12-29T06:37:38.562Z,1.53
2022-12-29T06:40:06.077Z,1.27
2022-12-29T06:42:46.065Z,1.37
2022-12-29T06:45:33.577Z,1.57
2022-12-29T06:48:00.808Z,1.03
2022-12-29T06:50:27.711Z,1.50
2022-12-29T06:52:54.511Z,1.03
2022-12-29T06:55:22.269Z,1.30
2022-12-29T06:57:49.118Z,1.10
2022-12-29T07:00:20.963Z,1.50
2022-12-29T07:02:49.500Z,1.40
2022-12-29T07:05:16.734Z,1.17
2022-12-29T07:07:44.180Z,1.37
2022-12-29T07:10:11.371Z,1.70
2022-12-29T07:12:38.157Z,1.60
2022-12-29T07:15:05.922Z,1.47
2022-12-29T07:17:32.966Z,1.40
2022-12-29T07:19:59.942Z,1.07
2022-12-29T07:22:27.628Z,1.37
2022-12-29T07:24:54.638Z,1.37
2022-12-29T07:27:22.173Z,1.00
2022-12-29T07:29:49.087Z,1.17
2022-12-29T07:32:16.700Z,1.03
2022-12-29T07:34:46.400Z,1.10
2022-12-29T07:37:15.269Z,1.60
2022-12-29T07:39:42.543Z,1.30
2022-12-29T07:42:09.690Z,1.37
2022-12-29T07:44:45.123Z,2.10
2022-12-29T07:47:30.801Z,1.60
2022-12-29T07:49:58.091Z,1.43
2022-12-29T07:52:24.952Z,1.10
2022-12-29T07:54:52.052Z,1.53
2022-12-29T07:57:18.902Z,1.00
2022-12-29T07:59:45.946Z,2.20
2022-12-29T08:02:13.404Z,1.70
2022-12-29T08:04:40.415Z,1.43
2022-12-29T08:07:07.205Z,2.00
2022-12-29T08:09:34.053Z,1.33
2022-12-29T08:12:00.911Z,1.47
2022-12-29T08:14:27.715Z,1.70
2022-12-29T08:16:54.447Z,1.40
2022-12-29T08:19:24.217Z,1.47
2022-12-29T08:21:51.270Z,1.40
2022-12-29T08:24:18.297Z,1.60
2022-12-29T08:26:44.974Z,1.40
2022-12-29T08:29:11.899Z,1.40
2022-12-29T08:31:39.387Z,1.43
2022-12-29T08:34:06.781Z,1.93
2022-12-29T08:36:33.726Z,1.67
2022-12-29T08:39:00.518Z,1.40
2022-12-29T08:41:27.574Z,1.63
2022-12-29T08:43:54.461Z,1.57
2022-12-29T08:46:21.169Z,1.37
2022-12-29T08:48:48.205Z,1.40
2022-12-29T08:51:15.932Z,4.50
2022-12-29T08:53:44.409Z,1.33
2022-12-29T08:56:12.337Z,1.70
2022-12-29T08:58:47.057Z,1.30
2022-12-29T09:01:13.973Z,1.40
2022-12-29T09:06:28.132Z,1.70
2022-12-29T09:08:55.956Z,1.30
2022-12-29T09:11:24.515Z,1.87
2022-12-29T09:13:53.041Z,1.37
2022-12-29T09:16:24.296Z,1.50
2022-12-29T09:18:51.949Z,1.67
2022-12-29T09:21:22.193Z,2.07
2022-12-29T09:23:49.733Z,1.40
2022-12-29T09:26:16.779Z,1.43
2022-12-29T09:28:45.502Z,2.50
2022-12-29T09:31:14.248Z,1.70
2022-12-29T09:33:41.600Z,1.70
2022-12-29T09:36:09.762Z,1.83
2022-12-29T09:38:36.855Z,1.73
2022-12-29T09:41:14.750Z,1.80
2022-12-29T09:44:05.302Z,1.50
2022-12-29T09:46:58.563Z,1.67
2022-12-29T09:49:48.262Z,1.80
2022-12-29T09:52:18.224Z,1.60
2022-12-29T09:54:57.965Z,1.47
2022-12-29T09:57:31.874Z,1.30
2022-12-29T10:00:05.483Z,1.67
2022-12-29T10:02:51.267Z,2.03
2022-12-29T10:05:40.366Z,2.23
2022-12-29T10:08:22.434Z,1.50
2022-12-29T10:10:58.131Z,1.50
2022-12-29T10:14:13.912Z,1.70
2022-12-29T10:17:20.162Z,1.40
2022-12-29T10:20:05.659Z,1.77
2022-12-29T10:22:50.752Z,1.60
2022-12-29T10:25:20.507Z,2.00
2022-12-29T10:27:51.440Z,1.30
2022-12-29T10:30:19.266Z,1.80
2022-12-29T10:32:49.003Z,1.90
2022-12-29T10:35:27.492Z,1.70
2022-12-29T10:37:57.173Z,1.70
2022-12-29T10:40:32.144Z,1.93
2022-12-29T10:42:59.934Z,2.20
2022-12-29T10:45:31.515Z,1.60
2022-12-29T10:48:05.368Z,1.50
2022-12-29T10:50:32.569Z,1.90
2022-12-29T10:53:11.652Z,1.77
2022-12-29T10:55:39.416Z,1.70
2022-12-29T10:58:07.864Z,1.80
2022-12-29T11:00:35.046Z,1.40
2022-12-29T11:03:40.851Z,1.83
2022-12-29T11:06:13.839Z,1.83
2022-12-29T11:08:48.680Z,1.80
2022-12-29T11:11:27.242Z,1.83
2022-12-29T11:13:59.912Z,2.13
2022-12-29T11:16:35.467Z,1.93
2022-12-29T11:19:02.723Z,1.90
2022-12-29T11:21:43.161Z,1.60
2022-12-29T11:24:27.559Z,2.10
2022-12-29T11:26:58.556Z,1.97
2022-12-29T11:29:30.435Z,1.60
2022-12-29T11:32:00.357Z,1.73
2022-12-29T11:34:37.061Z,2.57
2022-12-29T11:37:12.475Z,1.67
2022-12-29T11:39:52.067Z,2.03
2022-12-29T11:42:21.211Z,1.57
2022-12-29T11:44:49.894Z,1.60
2022-12-29T11:47:47.146Z,1.67
2022-12-29T11:50:27.322Z,1.47
2022-12-29T11:53:18.654Z,1.80
2022-12-29T11:55:57.185Z,2.33
2022-12-29T11:58:33.578Z,1.93
2022-12-29T12:01:24.368Z,1.67
2022-12-29T12:04:02.694Z,1.80
2022-12-29T12:06:30.845Z,1.80
2022-12-29T12:09:02.144Z,1.77
2022-12-29T12:11:43.204Z,1.70
2022-12-29T12:14:15.613Z,2.87
2022-12-29T12:17:11.357Z,1.70
2022-12-29T12:19:47.321Z,1.67
2022-12-29T12:22:41.229Z,1.60
2022-12-29T12:25:14.894Z,1.93
2022-12-29T12:28:01.913Z,1.40
2022-12-29T12:30:32.889Z,1.73
2022-12-29T12:33:06.939Z,1.60
2022-12-29T12:35:52.829Z,1.50
2022-12-29T12:38:38.801Z,1.57
2022-12-29T12:41:35.302Z,1.47
2022-12-29T12:44:14.084Z,1.40
2022-12-29T12:46:54.333Z,2.20
2022-12-29T12:49:51.887Z,1.50
2022-12-29T12:52:33.566Z,1.90
2022-12-29T12:55:12.481Z,1.70
2022-12-29T12:57:49.812Z,1.77
2022-12-29T13:00:19.179Z,1.63
2022-12-29T13:03:14.317Z,1.67
2022-12-29T13:05:48.875Z,1.40
2022-12-29T13:08:34.058Z,1.60
2022-12-29T13:11:06.793Z,1.63
2022-12-29T13:14:15.042Z,1.87
2022-12-29T13:17:01.885Z,1.40
2022-12-29T13:19:32.900Z,1.30
2022-12-29T13:22:20.299Z,1.30
2022-12-29T13:25:15.109Z,1.20
2022-12-29T13:27:41.965Z,1.40
2022-12-29T13:30:16.647Z,1.93
2022-12-29T13:33:02.157Z,1.80
2022-12-29T13:35:32.142Z,2.00
2022-12-29T13:38:31.345Z,1.80
2022-12-29T13:41:03.560Z,3.00
2022-12-29T13:43:33.147Z,1.63
2022-12-29T13:46:06.348Z,1.50
2022-12-29T13:49:00.635Z,1.37
2022-12-29T13:51:28.754Z,1.97
2022-12-29T13:54:13.717Z,1.77
2022-12-29T13:56:43.961Z,2.50
2022-12-29T13:59:19.192Z,1.60
2022-12-29T14:01:55.880Z,2.20
2022-12-29T14:04:26.169Z,2.10
2022-12-29T14:07:08.267Z,2.10
2022-12-29T14:09:47.553Z,1.90
2022-12-29T14:12:39.698Z,1.97
2022-12-29T14:15:08.656Z,2.40
2022-12-29T14:17:44.217Z,2.07
2022-12-29T14:20:22.875Z,1.73
2022-12-29T14:22:57.457Z,1.60
2022-12-29T14:25:59.991Z,2.60
2022-12-29T14:28:30.758Z,2.00
2022-12-29T14:31:15.834Z,2.03
2022-12-29T14:34:11.720Z,2.23
2022-12-29T14:36:43.985Z,1.87
2022-12-29T14:39:40.494Z,1.90
2022-12-29T14:42:10.504Z,2.33
2022-12-29T14:44:51.555Z,1.80
2022-12-29T14:47:36.460Z,2.40
2022-12-29T14:50:12.265Z,2.30
2022-12-29T14:53:03.024Z,1.90
2022-12-29T14:55:42.984Z,1.90
2022-12-29T14:58:55.127Z,3.07
2022-12-29T15:01:38.880Z,2.20
2022-12-29T15:04:32.849Z,1.90
2022-12-29T15:07:01.065Z,2.00
2022-12-29T15:09:37.622Z,2.07
2022-12-29T15:12:25.154Z,2.83
2022-12-29T15:14:54.740Z,2.53
2022-12-29T15:17:34.002Z,1.67
2022-12-29T15:20:15.851Z,2.40
2022-12-29T15:22:53.051Z,2.00
2022-12-29T15:25:20.366Z,2.10
2022-12-29T15:27:55.435Z,1.70
2022-12-29T15:30:22.822Z,1.80
2022-12-29T15:32:51.138Z,2.73
2022-12-29T15:35:36.033Z,1.70
2022-12-29T15:38:15.365Z,1.40
2022-12-29T15:40:45.324Z,2.20
2022-12-29T15:43:24.801Z,1.40
2022-12-29T15:45:52.177Z,1.60
2022-12-29T15:48:22.227Z,1.23
2022-12-29T15:50:49.407Z,1.40
2022-12-29T15:53:33.484Z,1.53
2022-12-29T15:56:04.100Z,1.30
2022-12-29T15:58:51.570Z,0.93
2022-12-29T16:01:20.370Z,1.20
2022-12-29T16:03:47.533Z,1.13
2022-12-29T16:06:29.708Z,1.33
2022-12-29T16:09:01.174Z,1.47
2022-12-29T16:11:38.416Z,1.30
2022-12-29T16:14:17.655Z,1.40
2022-12-29T16:16:45.785Z,1.77
2022-12-29T16:19:15.884Z,1.47
2022-12-29T16:21:44.099Z,2.00
2022-12-29T16:24:18.126Z,2.00
2022-12-29T16:27:08.493Z,1.67
2022-12-29T16:29:35.963Z,1.60
2022-12-29T16:32:06.582Z,1.53
2022-12-29T16:34:42.991Z,1.70
2022-12-29T16:37:32.650Z,1.90
2022-12-29T16:40:24.388Z,1.87
2022-12-29T16:42:52.589Z,1.83
2022-12-29T16:45:19.662Z,2.30
2022-12-29T16:47:50.411Z,2.10
2022-12-29T16:50:28.270Z,2.30
2022-12-29T16:52:56.004Z,2.60
2022-12-29T16:55:24.069Z,2.47
2022-12-29T16:57:54.730Z,3.83
2022-12-29T17:00:24.251Z,2.63
2022-12-29T17:02:53.653Z,2.67
2022-12-29T17:05:20.879Z,2.30
2022-12-29T17:07:48.950Z,2.57
2022-12-29T17:10:19.555Z,2.87
2022-12-29T17:12:48.807Z,2.40
2022-12-29T17:15:26.339Z,2.60
2022-12-29T17:17:56.444Z,2.77
2022-12-29T17:20:31.651Z,2.70
2022-12-29T17:22:59.568Z,2.30
2022-12-29T17:25:35.603Z,2.40
2022-12-29T17:28:32.485Z,2.63
2022-12-29T17:31:06.950Z,1.90
2022-12-29T17:33:38.837Z,2.20
2022-12-29T17:36:05.955Z,1.83
2022-12-29T17:38:35.639Z,2.13
2022-12-29T17:41:02.769Z,2.50
2022-12-29T17:43:36.336Z,1.70
2022-12-29T17:46:06.411Z,2.40
2022-12-29T17:48:33.463Z,2.07
2022-12-29T17:51:00.206Z,2.37
2022-12-29T17:53:29.397Z,2.13
2022-12-29T17:55:56.587Z,2.10
2022-12-29T17:58:25.836Z,2.33
2022-12-29T18:00:54.942Z,2.20
2022-12-29T18:03:31.123Z,2.47
2022-12-29T18:05:58.542Z,2.23
2022-12-29T18:08:25.697Z,3.20
2022-12-29T18:10:54.043Z,2.17
2022-12-29T18:13:27.144Z,1.77
2022-12-29T18:15:59.086Z,2.07
2022-12-29T18:18:27.473Z,2.40
2022-12-29T18:20:57.327Z,1.80
2022-12-29T18:23:26.508Z,2.40
2022-12-29T18:25:59.135Z,2.23
2022-12-29T18:28:26.451Z,2.63
2022-12-29T18:30:53.770Z,2.00
2022-12-29T18:33:26.007Z,2.17
2022-12-29T18:36:03.663Z,2.33
2022-12-29T18:38:36.125Z,2.00
2022-12-29T18:41:04.175Z,2.07
2022-12-29T18:43:36.537Z,2.50
2022-12-29T18:46:07.349Z,2.17
2022-12-29T18:48:35.402Z,1.90
2022-12-29T18:51:14.830Z,2.00
2022-12-29T18:53:42.320Z,1.97
2022-12-29T18:56:13.321Z,1.80
2022-12-29T18:58:46.796Z,2.60
2022-12-29T19:01:22.101Z,2.27
2022-12-29T19:03:49.888Z,2.63
2022-12-29T19:06:21.492Z,2.17
2022-12-29T19:08:50.180Z,1.70
2022-12-29T19:11:19.925Z,2.13
2022-12-29T19:13:47.420Z,2.20
2022-12-29T19:16:20.117Z,2.43
2022-12-29T19:18:58.115Z,2.10
2022-12-29T19:21:31.116Z,1.63
2022-12-29T19:23:58.444Z,1.90
2022-12-29T19:26:31.622Z,2.13
2022-12-29T19:28:59.373Z,1.93
2022-12-29T19:31:28.263Z,1.70
2022-12-29T19:33:56.039Z,1.67
2022-12-29T19:36:23.066Z,1.70
2022-12-29T19:38:50.265Z,1.93
2022-12-29T19:41:17.241Z,1.87
2022-12-29T19:43:44.277Z,2.37
2022-12-29T19:46:14.298Z,2.20
2022-12-29T19:48:41.288Z,1.80
2022-12-29T19:51:10.713Z,2.40
2022-12-29T19:53:38.213Z,2.60
2022-12-29T19:56:07.417Z,2.47
2022-12-29T19:58:36.286Z,2.37
2022-12-29T20:01:15.160Z,2.60
2022-12-29T20:03:42.838Z,2.23
2022-12-29T20:06:11.246Z,2.80
2022-12-29T20:08:39.296Z,2.07
2022-12-29T20:11:09.177Z,2.30
2022-12-29T20:13:36.869Z,2.90
2022-12-29T20:16:07.900Z,2.43
2022-12-29T20:18:36.303Z,3.10
2022-12-29T20:21:09.281Z,2.80
2022-12-29T20:23:38.653Z,2.63
2022-12-29T20:26:06.317Z,2.23
2022-12-29T20:28:33.328Z,3.00
2022-12-29T20:31:04.128Z,2.70
2022-12-29T20:33:37.888Z,2.27
2022-12-29T20:36:23.722Z,2.30
2022-12-29T20:38:53.097Z,3.00
2022-12-29T20:41:21.379Z,2.20
2022-12-29T20:43:49.350Z,2.23
2022-12-29T20:46:20.822Z,3.47
2022-12-29T20:48:49.862Z,2.70
2022-12-29T20:51:17.314Z,2.20
2022-12-29T20:53:44.689Z,2.63
2022-12-29T20:56:15.424Z,2.13
2022-12-29T20:59:17.072Z,2.90
2022-12-29T21:01:29.385Z,2.73
2022-12-29T21:03:56.679Z,3.40
2022-12-29T21:06:23.669Z,2.83
2022-12-29T21:08:51.128Z,2.37
2022-12-29T21:11:19.214Z,2.27
2022-12-29T21:13:46.161Z,2.30
2022-12-29T21:16:21.441Z,2.27
2022-12-29T21:18:51.690Z,2.13
2022-12-29T21:21:21.829Z,2.07
2022-12-29T21:23:50.670Z,2.90
2022-12-29T21:26:22.565Z,2.93
2022-12-29T21:28:50.304Z,2.10
2022-12-29T21:31:26.503Z,2.30
2022-12-29T21:33:54.352Z,2.77
2022-12-29T21:36:21.567Z,2.30
2022-12-29T21:38:48.657Z,2.37
2022-12-29T21:41:17.518Z,2.60
2022-12-29T21:44:07.938Z,2.50
2022-12-29T21:46:37.042Z,2.90
2022-12-29T21:49:05.567Z,3.23
2022-12-29T21:51:50.848Z,2.40
2022-12-29T21:54:37.774Z,2.37
2022-12-29T21:57:05.235Z,2.23
2022-12-29T21:59:51.213Z,2.37
2022-12-29T22:02:44.277Z,2.10
2022-12-29T22:05:34.500Z,2.27
2022-12-29T22:08:21.260Z,2.07
2022-12-29T22:11:07.688Z,2.07
2022-12-29T22:13:36.608Z,2.63
2022-12-29T22:16:05.100Z,2.30
2022-12-29T22:18:32.074Z,2.20
2022-12-29T22:20:59.248Z,3.10
2022-12-29T22:23:27.041Z,1.93
2022-12-29T22:25:54.700Z,2.70
2022-12-29T22:28:21.773Z,2.10
2022-12-29T22:30:48.611Z,1.73
2022-12-29T22:33:15.904Z,2.27
2022-12-29T22:35:42.957Z,2.67
2022-12-29T22:38:09.901Z,2.43
2022-12-29T22:40:36.779Z,2.43
2022-12-29T22:43:09.481Z,2.30
2022-12-29T22:45:40.777Z,2.20
2022-12-29T22:48:08.765Z,2.60
2022-12-29T22:50:39.101Z,2.30
2022-12-29T22:53:07.029Z,2.57
2022-12-29T22:55:34.929Z,4.17
2022-12-29T22:58:02.920Z,2.43
2022-12-29T23:00:30.043Z,2.17
2022-12-29T23:02:57.252Z,2.47
2022-12-29T23:05:24.342Z,2.37
2022-12-29T23:07:51.356Z,2.33
2022-12-29T23:10:18.453Z,2.30
2022-12-29T23:12:45.831Z,2.70
2022-12-29T23:15:12.720Z,3.87
2022-12-29T23:17:39.978Z,2.30
2022-12-29T23:20:10.128Z,2.70
2022-12-29T23:22:37.115Z,2.40
2022-12-29T23:25:04.299Z,3.03
2022-12-29T23:27:31.335Z,2.03
2022-12-29T23:29:58.575Z,4.20
2022-12-29T23:32:25.536Z,2.40
2022-12-29T23:34:52.506Z,2.40
2022-12-29T23:37:22.165Z,2.33
2022-12-29T23:39:49.397Z,1.80
2022-12-29T23:42:16.519Z,2.20
2022-12-29T23:44:43.945Z,1.97
2022-12-29T23:47:11.354Z,2.30
2022-12-29T23:49:38.393Z,1.87
2022-12-29T23:52:05.782Z,2.23
2022-12-29T23:54:33.178Z,2.10
2022-12-29T23:57:06.521Z,3.77
2022-12-29T23:59:34.195Z,1.50
